Time,TemperatureF,DewpointF,PressureIn,WindDirection,WindDirectionDegrees,WindSpeedMPH,WindSpeedGustMPH,Humidity,HourlyPrecipIn,Conditions,Clouds,dailyrainin,SoftwareType,DateUTC
2013-04-25 00:00:00,50.4,47.3,29.77,SE,135,5.0,9.0,89,0.00,,CLR,0.00,VWS V14.00,2013-04-25 04:00:00,
2013-04-25 00:01:00,50.4,47.3,29.77,SE,136,3.0,9.0,89,0.00,,CLR,0.00,VWS V14.00,2013-04-25 04:01:00,
2013-04-25 00:06:00,50.5,47.4,29.77,South,184,1.0,6.0,89,0.00,,CLR,0.00,VWS V14.00,2013-04-25 04:06:00,
2013-04-25 00:11:00,50.7,47.6,29.77,SSE,163,2.0,2.0,89,0.00,,CLR,0.00,VWS V14.00,2013-04-25 04:11:00,
2013-04-25 00:16:00,50.8,47.7,29.77,SE,131,0.0,3.0,89,0.00,,CLR,0.00,VWS V14.00,2013-04-25 04:16:00,
2013-04-25 00:21:00,50.8,47.7,29.77,SSE,165,1.0,3.0,89,0.00,,CLR,0.00,VWS V14.00,2013-04-25 04:21:00,
2013-04-25 00:26:00,51.0,48.2,29.77,SSE,159,2.0,5.0,90,0.00,,CLR,0.00,VWS V14.00,2013-04-25 04:26:00,
2013-04-25 00:31:00,51.1,48.3,29.77,SE,126,1.0,1.0,90,0.00,,CLR,0.00,VWS V14.00,2013-04-25 04:31:00,
2013-04-25 00:36:00,51.1,48.3,29.77,SSE,158,0.0,3.0,90,0.00,,CLR,0.00,VWS V14.00,2013-04-25 04:36:00,
2013-04-25 00:41:00,51.3,48.5,29.77,SSE,161,0.0,4.0,90,0.00,,CLR,0.00,VWS V14.00,2013-04-25 04:41:00,
2013-04-25 00:46:00,51.3,48.5,29.77,NE,46,0.0,2.0,90,0.00,,FEW100,0.00,VWS V14.00,2013-04-25 04:46:00,
2013-04-25 00:51:00,51.4,48.6,29.77,SE,134,0.0,4.0,90,0.00,,FEW100,0.00,VWS V14.00,2013-04-25 04:51:00,
2013-04-25 00:56:00,51.4,48.6,29.77,SE,142,4.0,6.0,90,0.00,,FEW100,0.00,VWS V14.00,2013-04-25 04:56:00,
2013-04-25 01:01:00,51.6,48.8,29.77,SE,134,5.0,5.0,90,0.00,,FEW100,0.00,VWS V14.00,2013-04-25 05:01:00,
2013-04-25 01:06:00,51.6,48.8,29.77,NNW,328,0.0,4.0,90,0.00,,FEW100,0.00,VWS V14.00,2013-04-25 05:06:00,
2013-04-25 01:11:00,51.6,48.8,29.77,South,188,0.0,1.0,90,0.00,,FEW100,0.00,VWS V14.00,2013-04-25 05:11:00,
2013-04-25 01:16:00,51.7,48.9,29.78,South,183,1.0,3.0,90,0.00,,FEW100,0.00,VWS V14.00,2013-04-25 05:16:00,
2013-04-25 01:21:00,51.7,48.9,29.78,South,183,0.0,1.0,90,0.00,,FEW100,0.00,VWS V14.00,2013-04-25 05:21:00,
2013-04-25 01:26:00,51.9,49.1,29.78,South,183,2.0,2.0,90,0.00,,FEW100,0.00,VWS V14.00,2013-04-25 05:26:00,
2013-04-25 01:31:00,51.9,49.1,29.78,South,183,2.0,2.0,90,0.00,,FEW100,0.00,VWS V14.00,2013-04-25 05:31:00,
2013-04-25 01:36:00,51.9,49.1,29.78,SE,139,1.0,3.0,90,0.00,,FEW100,0.00,VWS V14.00,2013-04-25 05:36:00,
2013-04-25 01:41:00,52.0,49.2,29.78,SSE,149,0.0,3.0,90,0.00,,FEW100,0.00,VWS V14.00,2013-04-25 05:41:00,
2013-04-25 01:46:00,52.0,49.5,29.78,SE,146,1.0,3.0,91,0.00,,OVC100,0.00,VWS V14.00,2013-04-25 05:46:00,
2013-04-25 01:51:00,52.0,49.5,29.78,SW,235,2.0,3.0,91,0.00,,OVC100,0.00,VWS V14.00,2013-04-25 05:51:00,
2013-04-25 01:56:00,52.2,49.7,29.78,SSE,155,0.0,1.0,91,0.00,,OVC100,0.00,VWS V14.00,2013-04-25 05:56:00,
2013-04-25 02:01:00,52.3,49.8,29.78,SSE,159,1.0,1.0,91,0.00,,OVC100,0.00,VWS V14.00,2013-04-25 06:01:00,
2013-04-25 02:06:00,52.3,49.8,29.78,East,101,0.0,1.0,91,0.00,,OVC100,0.00,VWS V14.00,2013-04-25 06:06:00,
2013-04-25 02:11:00,52.3,49.8,29.78,East,101,0.0,0.0,91,0.00,,OVC100,0.00,VWS V14.00,2013-04-25 06:11:00,
2013-04-25 02:16:00,52.3,49.8,29.79,East,101,0.0,1.0,91,0.00,,OVC100,0.00,VWS V14.00,2013-04-25 06:16:00,
2013-04-25 02:21:00,52.3,49.8,29.79,East,101,0.0,0.0,91,0.00,,OVC100,0.00,VWS V14.00,2013-04-25 06:21:00,
2013-04-25 02:26:00,52.3,49.8,29.79,East,101,0.0,1.0,91,0.00,,OVC100,0.00,VWS V14.00,2013-04-25 06:26:00,
2013-04-25 02:31:00,52.5,50.0,29.79,SE,138,0.0,1.0,91,0.00,,OVC100,0.00,VWS V14.00,2013-04-25 06:31:00,
2013-04-25 02:36:00,52.5,50.0,29.79,ESE,115,0.0,1.0,91,0.00,,OVC100,0.00,VWS V14.00,2013-04-25 06:36:00,
2013-04-25 02:41:00,52.5,50.0,29.79,ESE,115,1.0,1.0,91,0.00,,OVC100,0.00,VWS V14.00,2013-04-25 06:41:00,
2013-04-25 02:46:00,52.5,50.0,29.80,SSW,198,0.0,0.0,91,0.00,,-RA,0.00,VWS V14.00,2013-04-25 06:46:00,
2013-04-25 02:51:00,52.3,50.0,29.80,SSW,198,0.0,1.0,92,0.00,,-RA,0.00,VWS V14.00,2013-04-25 06:51:00,
2013-04-25 02:56:00,52.3,50.0,29.80,WNW,299,2.0,4.0,92,0.00,,-RA,0.00,VWS V14.00,2013-04-25 06:56:00,
2013-04-25 03:01:00,52.3,50.0,29.81,WNW,299,0.0,1.0,92,0.00,,-RA,0.00,VWS V14.00,2013-04-25 07:01:00,
2013-04-25 03:06:00,52.3,49.8,29.81,NW,308,3.0,13.0,91,0.00,,-RA,0.00,VWS V14.00,2013-04-25 07:06:00,
2013-04-25 03:11:00,52.0,49.2,29.81,WNW,299,12.0,12.0,90,0.00,,-RA,0.00,VWS V14.00,2013-04-25 07:11:00,
2013-04-25 03:16:00,51.9,48.8,29.82,West,263,10.0,14.0,89,0.00,,-RA,0.00,VWS V14.00,2013-04-25 07:16:00,
2013-04-25 03:21:00,51.6,47.2,29.82,NW,305,7.0,14.0,85,0.00,,-RA,0.00,VWS V14.00,2013-04-25 07:21:00,
2013-04-25 03:26:00,51.7,45.1,29.82,WNW,302,6.0,10.0,78,0.00,,-RA,0.00,VWS V14.00,2013-04-25 07:26:00,
2013-04-25 03:31:00,52.0,42.9,29.82,WNW,282,7.0,7.0,71,0.00,,-RA,0.00,VWS V14.00,2013-04-25 07:31:00,
2013-04-25 03:36:00,52.5,40.7,29.82,WNW,298,7.0,22.0,64,0.01,,-RA,0.01,VWS V14.00,2013-04-25 07:36:00,
2013-04-25 03:41:00,52.6,40.0,29.82,WSW,245,9.0,14.0,62,0.01,,-RA,0.01,VWS V14.00,2013-04-25 07:41:00,
2013-04-25 03:46:00,52.6,39.5,29.84,WNW,294,5.0,12.0,61,0.01,,,0.01,VWS V14.00,2013-04-25 07:46:00,
2013-04-25 03:51:00,52.5,39.0,29.84,WNW,288,11.0,12.0,60,0.01,,,0.01,VWS V14.00,2013-04-25 07:51:00,
2013-04-25 03:56:00,52.5,39.0,29.84,WNW,290,5.0,12.0,60,0.01,,,0.01,VWS V14.00,2013-04-25 07:56:00,
2013-04-25 04:01:00,52.3,39.3,29.84,WNW,285,6.0,13.0,61,0.01,,,0.01,VWS V14.00,2013-04-25 08:01:00,
2013-04-25 04:06:00,52.0,39.0,29.84,NW,306,6.0,10.0,61,0.01,,,0.01,VWS V14.00,2013-04-25 08:06:00,
2013-04-25 04:11:00,51.9,38.9,29.84,West,278,6.0,12.0,61,0.01,,,0.01,VWS V14.00,2013-04-25 08:11:00,
2013-04-25 04:16:00,51.6,39.0,29.86,West,279,9.0,16.0,62,0.01,,,0.01,VWS V14.00,2013-04-25 08:16:00,
2013-04-25 04:21:00,51.4,39.2,29.86,WNW,288,3.0,10.0,63,0.01,,,0.01,VWS V14.00,2013-04-25 08:21:00,
2013-04-25 04:26:00,51.3,39.2,29.86,WNW,286,5.0,6.0,63,0.01,,,0.01,VWS V14.00,2013-04-25 08:26:00,
2013-04-25 04:31:00,51.0,38.5,29.88,WNW,288,10.0,13.0,62,0.01,,,0.01,VWS V14.00,2013-04-25 08:31:00,
2013-04-25 04:36:00,50.7,38.2,29.88,WNW,287,12.0,16.0,62,0.01,,,0.01,VWS V14.00,2013-04-25 08:36:00,
2013-04-25 04:41:00,50.4,37.5,29.88,West,279,13.0,14.0,61,0.01,,,0.01,VWS V14.00,2013-04-25 08:41:00,
2013-04-25 04:46:00,50.1,36.8,29.90,West,274,4.0,14.0,60,0.00,,OVC110,0.01,VWS V14.00,2013-04-25 08:46:00,
2013-04-25 04:51:00,49.9,36.6,29.90,West,277,2.0,7.0,60,0.00,,OVC110,0.01,VWS V14.00,2013-04-25 08:51:00,
2013-04-25 04:56:00,49.8,36.5,29.90,WSW,253,6.0,14.0,60,0.00,,OVC110,0.01,VWS V14.00,2013-04-25 08:56:00,
2013-04-25 05:01:00,49.5,36.2,29.90,NNW,327,12.0,12.0,60,0.00,,OVC110,0.01,VWS V14.00,2013-04-25 09:01:00,
2013-04-25 05:06:00,49.4,36.1,29.90,NW,307,3.0,5.0,60,0.00,,OVC110,0.01,VWS V14.00,2013-04-25 09:06:00,
2013-04-25 05:11:00,49.1,35.8,29.90,NW,305,5.0,7.0,60,0.00,,OVC110,0.01,VWS V14.00,2013-04-25 09:11:00,
2013-04-25 05:16:00,48.8,36.0,29.92,NNE,24,4.0,9.0,61,0.00,,OVC110,0.01,VWS V14.00,2013-04-25 09:16:00,
2013-04-25 05:21:00,48.5,35.7,29.92,WNW,286,4.0,4.0,61,0.00,,OVC110,0.01,VWS V14.00,2013-04-25 09:21:00,
2013-04-25 05:26:00,48.0,35.2,29.92,WNW,284,6.0,10.0,61,0.00,,OVC110,0.01,VWS V14.00,2013-04-25 09:26:00,
2013-04-25 05:31:00,47.7,34.5,29.94,North,9,4.0,11.0,60,0.00,,OVC110,0.01,VWS V14.00,2013-04-25 09:31:00,
2013-04-25 05:36:00,47.3,34.1,29.94,NW,316,4.0,10.0,60,0.00,,OVC110,0.01,VWS V14.00,2013-04-25 09:36:00,
2013-04-25 05:41:00,46.8,33.7,29.94,NW,311,6.0,10.0,60,0.00,,OVC110,0.01,VWS V14.00,2013-04-25 09:41:00,
2013-04-25 05:46:00,46.5,33.4,29.95,NW,306,5.0,11.0,60,0.00,,OVC090,0.01,VWS V14.00,2013-04-25 09:46:00,
2013-04-25 05:51:00,46.4,33.3,29.95,North,5,9.0,12.0,60,0.00,,OVC090,0.01,VWS V14.00,2013-04-25 09:51:00,
2013-04-25 05:56:00,46.1,33.0,29.95,NW,315,4.0,7.0,60,0.00,,OVC090,0.01,VWS V14.00,2013-04-25 09:56:00,
2013-04-25 06:01:00,46.0,32.9,29.96,NW,320,10.0,12.0,60,0.00,,OVC090,0.01,VWS V14.00,2013-04-25 10:01:00,
2013-04-25 06:06:00,45.8,32.7,29.96,WNW,298,7.0,13.0,60,0.00,,OVC090,0.01,VWS V14.00,2013-04-25 10:06:00,
2013-04-25 06:11:00,45.8,32.7,29.96,WNW,301,6.0,13.0,60,0.00,,OVC090,0.01,VWS V14.00,2013-04-25 10:11:00,
2013-04-25 06:16:00,45.7,32.2,29.98,NNW,328,3.0,11.0,59,0.00,,-RA,0.01,VWS V14.00,2013-04-25 10:16:00,
2013-04-25 06:21:00,45.5,31.6,29.98,NW,322,9.0,9.0,58,0.00,,-RA,0.01,VWS V14.00,2013-04-25 10:21:00,
2013-04-25 06:26:00,45.5,32.0,29.98,North,9,4.0,9.0,59,0.00,,-RA,0.01,VWS V14.00,2013-04-25 10:26:00,
2013-04-25 06:31:00,45.5,32.0,29.99,NW,321,3.0,4.0,59,0.00,,OVC090,0.01,VWS V14.00,2013-04-25 10:31:00,
2013-04-25 06:36:00,45.4,31.5,29.99,NW,304,6.0,11.0,58,0.00,,OVC090,0.01,VWS V14.00,2013-04-25 10:36:00,
2013-04-25 06:41:00,45.4,31.9,29.99,WNW,290,8.0,10.0,59,0.00,,OVC090,0.01,VWS V14.00,2013-04-25 10:41:00,
2013-04-25 06:46:00,45.2,31.7,30.00,WNW,291,5.0,5.0,59,0.00,,BKN110,0.01,VWS V14.00,2013-04-25 10:46:00,
2013-04-25 06:51:00,45.1,31.6,30.00,NW,307,5.0,7.0,59,0.00,,BKN110,0.01,VWS V14.00,2013-04-25 10:51:00,
2013-04-25 06:56:00,44.8,31.4,30.00,NNW,333,1.0,6.0,59,0.00,,BKN110,0.01,VWS V14.00,2013-04-25 10:56:00,
2013-04-25 07:01:00,44.6,31.2,30.01,NNE,14,1.0,4.0,59,0.00,,BKN110,0.01,VWS V14.00,2013-04-25 11:01:00,
2013-04-25 07:06:00,44.3,30.9,30.01,WNW,285,8.0,9.0,59,0.00,,BKN110,0.01,VWS V14.00,2013-04-25 11:06:00,
2013-04-25 07:11:00,44.2,30.8,30.01,NW,319,10.0,10.0,59,0.00,,BKN110,0.01,VWS V14.00,2013-04-25 11:11:00,
2013-04-25 07:16:00,44.1,30.7,30.01,WNW,302,4.0,13.0,59,0.00,,BKN110,0.01,VWS V14.00,2013-04-25 11:16:00,
2013-04-25 07:21:00,44.1,30.7,30.01,NW,313,1.0,2.0,59,0.00,,BKN110,0.01,VWS V14.00,2013-04-25 11:21:00,
2013-04-25 07:26:00,44.1,31.1,30.01,WNW,302,4.0,5.0,60,0.00,,BKN110,0.01,VWS V14.00,2013-04-25 11:26:00,
2013-04-25 07:31:00,44.1,30.7,30.03,NW,306,7.0,7.0,59,0.00,,BKN110,0.01,VWS V14.00,2013-04-25 11:31:00,
2013-04-25 07:36:00,44.1,30.7,30.03,NW,306,7.0,7.0,59,0.00,,BKN110,0.01,VWS V14.00,2013-04-25 11:36:00,
2013-04-25 07:41:00,44.2,30.8,30.03,West,266,8.0,12.0,59,0.00,,BKN110,0.01,VWS V14.00,2013-04-25 11:41:00,
2013-04-25 07:46:00,44.3,30.5,30.04,WNW,283,13.0,13.0,58,0.00,,CLR,0.01,VWS V14.00,2013-04-25 11:46:00,
2013-04-25 07:51:00,44.3,30.5,30.04,WNW,303,7.0,12.0,58,0.00,,CLR,0.01,VWS V14.00,2013-04-25 11:51:00,
2013-04-25 07:56:00,44.5,30.7,30.04,West,264,5.0,10.0,58,0.00,,CLR,0.01,VWS V14.00,2013-04-25 11:56:00,
2013-04-25 08:01:00,44.6,30.3,30.04,NE,49,3.0,11.0,57,0.00,,CLR,0.01,VWS V14.00,2013-04-25 12:01:00,
2013-04-25 08:06:00,44.6,30.3,30.04,WNW,303,2.0,11.0,57,0.00,,CLR,0.01,VWS V14.00,2013-04-25 12:06:00,
2013-04-25 08:11:00,44.8,30.5,30.04,West,272,5.0,14.0,57,0.00,,CLR,0.01,VWS V14.00,2013-04-25 12:11:00,
2013-04-25 08:16:00,44.9,30.2,30.05,NW,311,5.0,9.0,56,0.00,,CLR,0.01,VWS V14.00,2013-04-25 12:16:00,
2013-04-25 08:21:00,45.1,30.8,30.05,WNW,301,11.0,11.0,57,0.00,,CLR,0.01,VWS V14.00,2013-04-25 12:21:00,
2013-04-25 08:26:00,45.2,30.5,30.05,WNW,296,10.0,12.0,56,0.00,,CLR,0.01,VWS V14.00,2013-04-25 12:26:00,
2013-04-25 08:31:00,45.4,30.6,30.05,WNW,297,12.0,12.0,56,0.00,,CLR,0.01,VWS V14.00,2013-04-25 12:31:00,
2013-04-25 08:36:00,45.5,30.7,30.05,WNW,285,5.0,5.0,56,0.00,,CLR,0.01,VWS V14.00,2013-04-25 12:36:00,
2013-04-25 08:41:00,45.8,30.6,30.05,WNW,296,3.0,10.0,55,0.00,,CLR,0.01,VWS V14.00,2013-04-25 12:41:00,
2013-04-25 08:46:00,46.2,31.4,30.06,WNW,290,2.0,9.0,56,0.00,,CLR,0.01,VWS V14.00,2013-04-25 12:46:00,
2013-04-25 08:51:00,46.7,31.4,30.06,NW,306,4.0,5.0,55,0.00,,CLR,0.01,VWS V14.00,2013-04-25 12:51:00,
2013-04-25 08:56:00,46.8,31.0,30.06,WNW,298,9.0,10.0,54,0.00,,CLR,0.01,VWS V14.00,2013-04-25 12:56:00,
2013-04-25 09:01:00,47.0,31.2,30.06,NW,309,4.0,9.0,54,0.00,,CLR,0.01,VWS V14.00,2013-04-25 13:01:00,
2013-04-25 09:06:00,47.3,31.5,30.06,West,281,9.0,11.0,54,0.00,,CLR,0.01,VWS V14.00,2013-04-25 13:06:00,
2013-04-25 09:11:00,47.4,31.1,30.06,NW,306,3.0,13.0,53,0.00,,CLR,0.01,VWS V14.00,2013-04-25 13:11:00,
2013-04-25 09:16:00,47.7,31.4,30.06,West,271,4.0,10.0,53,0.00,,CLR,0.01,VWS V14.00,2013-04-25 13:16:00,
2013-04-25 09:21:00,47.9,31.1,30.06,NW,317,5.0,11.0,52,0.00,,CLR,0.01,VWS V14.00,2013-04-25 13:21:00,
2013-04-25 09:26:00,48.0,31.2,30.06,WNW,300,9.0,12.0,52,0.00,,CLR,0.01,VWS V14.00,2013-04-25 13:26:00,
2013-04-25 09:31:00,48.2,31.9,30.06,NW,312,9.0,10.0,53,0.00,,CLR,0.01,VWS V14.00,2013-04-25 13:31:00,
2013-04-25 09:36:00,48.5,31.7,30.06,WSW,248,4.0,11.0,52,0.00,,CLR,0.01,VWS V14.00,2013-04-25 13:36:00,
2013-04-25 09:41:00,48.6,30.8,30.06,WNW,292,12.0,16.0,50,0.00,,CLR,0.01,VWS V14.00,2013-04-25 13:41:00,
2013-04-25 09:46:00,48.6,31.3,30.07,West,280,7.0,12.0,51,0.00,,CLR,0.01,VWS V14.00,2013-04-25 13:46:00,
2013-04-25 09:51:00,48.6,30.8,30.07,WNW,298,10.0,15.0,50,0.00,,CLR,0.01,VWS V14.00,2013-04-25 13:51:00,
2013-04-25 09:56:00,48.9,30.6,30.07,NW,312,4.0,9.0,49,0.00,,CLR,0.01,VWS V14.00,2013-04-25 13:56:00,
2013-04-25 10:01:00,49.1,30.8,30.07,NW,319,9.0,10.0,49,0.00,,CLR,0.01,VWS V14.00,2013-04-25 14:01:00,
2013-04-25 10:06:00,49.8,31.4,30.07,NW,321,11.0,11.0,49,0.00,,CLR,0.01,VWS V14.00,2013-04-25 14:06:00,
2013-04-25 10:11:00,49.9,30.5,30.07,NW,304,13.0,13.0,47,0.00,,CLR,0.01,VWS V14.00,2013-04-25 14:11:00,
2013-04-25 10:16:00,50.1,30.7,30.08,West,270,5.0,6.0,47,0.00,,CLR,0.01,VWS V14.00,2013-04-25 14:16:00,
2013-04-25 10:21:00,50.4,31.0,30.08,WSW,252,4.0,12.0,47,0.00,,CLR,0.01,VWS V14.00,2013-04-25 14:21:00,
2013-04-25 10:26:00,50.5,30.5,30.08,WSW,247,5.0,11.0,46,0.00,,CLR,0.01,VWS V14.00,2013-04-25 14:26:00,
2013-04-25 10:31:00,51.1,31.6,30.08,North,355,1.0,6.0,47,0.00,,CLR,0.01,VWS V14.00,2013-04-25 14:31:00,
2013-04-25 10:36:00,51.4,30.8,30.08,WNW,292,6.0,10.0,45,0.00,,CLR,0.01,VWS V14.00,2013-04-25 14:36:00,
2013-04-25 10:41:00,51.7,31.1,30.08,NW,304,5.0,10.0,45,0.00,,CLR,0.01,VWS V14.00,2013-04-25 14:41:00,
2013-04-25 10:46:00,51.9,29.5,30.08,WNW,286,11.0,12.0,42,0.00,,CLR,0.01,VWS V14.00,2013-04-25 14:46:00,
2013-04-25 10:51:00,52.0,30.8,30.08,WNW,288,7.0,8.0,44,0.00,,CLR,0.01,VWS V14.00,2013-04-25 14:51:00,
2013-04-25 10:56:00,51.6,28.1,30.08,WNW,288,11.0,13.0,40,0.00,,CLR,0.01,VWS V14.00,2013-04-25 14:56:00,
2013-04-25 11:01:00,51.4,29.7,30.08,West,261,5.0,11.0,43,0.00,,CLR,0.01,VWS V14.00,2013-04-25 15:01:00,
2013-04-25 11:06:00,52.6,32.4,30.08,WNW,295,3.0,5.0,46,0.00,,CLR,0.01,VWS V14.00,2013-04-25 15:06:00,
2013-04-25 11:11:00,53.1,29.4,30.08,NW,313,8.0,12.0,40,0.00,,CLR,0.01,VWS V14.00,2013-04-25 15:11:00,
2013-04-25 11:16:00,52.8,28.5,30.08,West,267,11.0,13.0,39,0.00,,CLR,0.01,VWS V14.00,2013-04-25 15:16:00,
2013-04-25 11:21:00,53.1,28.8,30.08,West,269,5.0,10.0,39,0.00,,CLR,0.01,VWS V14.00,2013-04-25 15:21:00,
2013-04-25 11:26:00,54.4,31.8,30.08,WNW,296,1.0,5.0,42,0.00,,CLR,0.01,VWS V14.00,2013-04-25 15:26:00,
2013-04-25 11:31:00,54.4,29.3,30.08,WNW,288,3.0,12.0,38,0.00,,CLR,0.01,VWS V14.00,2013-04-25 15:31:00,
2013-04-25 11:36:00,53.8,30.1,30.08,West,281,4.0,9.0,40,0.00,,CLR,0.01,VWS V14.00,2013-04-25 15:36:00,
2013-04-25 11:41:00,53.9,28.2,30.08,NW,306,9.0,11.0,37,0.00,,CLR,0.01,VWS V14.00,2013-04-25 15:41:00,
2013-04-25 11:46:00,53.5,28.5,30.09,WNW,284,12.0,12.0,38,0.00,,CLR,0.01,VWS V14.00,2013-04-25 15:46:00,
2013-04-25 11:51:00,53.8,26.8,30.09,WNW,296,13.0,13.0,35,0.00,,CLR,0.01,VWS V14.00,2013-04-25 15:51:00,
2013-04-25 11:56:00,54.8,32.2,30.09,NW,316,7.0,7.0,42,0.00,,CLR,0.01,VWS V14.00,2013-04-25 15:56:00,
2013-04-25 12:01:00,55.0,28.6,30.09,SE,140,4.0,10.0,36,0.00,,CLR,0.01,VWS V14.00,2013-04-25 16:01:00,
2013-04-25 12:06:00,55.6,27.7,30.09,NW,309,10.0,11.0,34,0.00,,CLR,0.01,VWS V14.00,2013-04-25 16:06:00,
2013-04-25 12:11:00,54.2,24.2,30.09,West,276,4.0,12.0,31,0.00,,CLR,0.01,VWS V14.00,2013-04-25 16:11:00,
2013-04-25 12:16:00,53.3,25.0,30.09,NW,305,7.0,10.0,33,0.00,,CLR,0.01,VWS V14.00,2013-04-25 16:16:00,
2013-04-25 12:21:00,53.5,26.5,30.09,WNW,302,6.0,11.0,35,0.00,,CLR,0.01,VWS V14.00,2013-04-25 16:21:00,
2013-04-25 12:26:00,53.8,26.1,30.09,WNW,292,10.0,12.0,34,0.00,,CLR,0.01,VWS V14.00,2013-04-25 16:26:00,
2013-04-25 12:31:00,54.7,27.6,30.09,West,280,3.0,4.0,35,0.00,,CLR,0.01,VWS V14.00,2013-04-25 16:31:00,
2013-04-25 12:36:00,54.5,26.7,30.09,West,268,4.0,6.0,34,0.00,,CLR,0.01,VWS V14.00,2013-04-25 16:36:00,
2013-04-25 12:41:00,55.7,28.5,30.09,NW,309,5.0,6.0,35,0.00,,CLR,0.01,VWS V14.00,2013-04-25 16:41:00,
2013-04-25 12:46:00,56.0,30.8,30.09,WNW,292,0.0,3.0,38,0.00,,CLR,0.01,VWS V14.00,2013-04-25 16:46:00,
2013-04-25 12:51:00,56.5,27.8,30.09,NNW,340,5.0,10.0,33,0.00,,CLR,0.01,VWS V14.00,2013-04-25 16:51:00,
2013-04-25 12:56:00,56.0,28.0,30.09,NW,315,3.0,7.0,34,0.00,,CLR,0.01,VWS V14.00,2013-04-25 16:56:00,
2013-04-25 13:01:00,56.3,28.3,30.09,WSW,246,2.0,6.0,34,0.00,,CLR,0.01,VWS V14.00,2013-04-25 17:01:00,
2013-04-25 13:06:00,56.0,23.4,30.09,WNW,286,4.0,10.0,28,0.00,,CLR,0.01,VWS V14.00,2013-04-25 17:06:00,
2013-04-25 13:11:00,56.9,26.6,30.09,SW,223,3.0,9.0,31,0.00,,CLR,0.01,VWS V14.00,2013-04-25 17:11:00,
2013-04-25 13:16:00,56.3,26.8,30.09,SSW,196,4.0,4.0,32,0.00,,CLR,0.01,VWS V14.00,2013-04-25 17:16:00,
2013-04-25 13:21:00,55.7,24.0,30.09,WNW,296,4.0,8.0,29,0.00,,CLR,0.01,VWS V14.00,2013-04-25 17:21:00,
2013-04-25 13:26:00,56.0,23.4,30.09,West,277,3.0,4.0,28,0.00,,CLR,0.01,VWS V14.00,2013-04-25 17:26:00,
2013-04-25 13:31:00,56.2,26.8,30.09,NW,326,0.0,3.0,32,0.00,,CLR,0.01,VWS V14.00,2013-04-25 17:31:00,
2013-04-25 13:36:00,57.0,29.6,30.09,NE,54,0.0,2.0,35,0.00,,CLR,0.01,VWS V14.00,2013-04-25 17:36:00,
2013-04-25 13:41:00,56.6,25.5,30.09,WNW,290,2.0,6.0,30,0.00,,CLR,0.01,VWS V14.00,2013-04-25 17:41:00,
2013-04-25 13:46:00,57.2,24.4,30.09,West,269,7.0,14.0,28,0.00,,CLR,0.01,VWS V14.00,2013-04-25 17:46:00,
2013-04-25 13:51:00,56.7,24.0,30.09,West,261,5.0,9.0,28,0.00,,CLR,0.01,VWS V14.00,2013-04-25 17:51:00,
2013-04-25 13:56:00,57.2,27.6,30.09,WNW,294,2.0,4.0,32,0.00,,CLR,0.01,VWS V14.00,2013-04-25 17:56:00,
2013-04-25 14:01:00,58.4,29.4,30.08,WNW,290,4.0,5.0,33,0.00,,CLR,0.01,VWS V14.00,2013-04-25 18:01:00,
2013-04-25 14:06:00,58.4,25.5,30.08,WNW,294,6.0,13.0,28,0.00,,CLR,0.01,VWS V14.00,2013-04-25 18:06:00,
2013-04-25 14:11:00,58.0,26.0,30.08,West,279,3.0,4.0,29,0.00,,CLR,0.01,VWS V14.00,2013-04-25 18:11:00,
2013-04-25 14:16:00,58.4,25.5,30.08,WSW,257,6.0,6.0,28,0.00,,CLR,0.01,VWS V14.00,2013-04-25 18:16:00,
2013-04-25 14:21:00,59.0,26.0,30.08,North,355,4.0,11.0,28,0.00,,CLR,0.01,VWS V14.00,2013-04-25 18:21:00,
2013-04-25 14:26:00,59.5,28.9,30.08,NW,305,9.0,12.0,31,0.00,,CLR,0.01,VWS V14.00,2013-04-25 18:26:00,
2013-04-25 14:31:00,58.3,24.5,30.08,WNW,299,4.0,9.0,27,0.00,,CLR,0.01,VWS V14.00,2013-04-25 18:31:00,
2013-04-25 14:36:00,58.3,25.4,30.08,NW,316,5.0,7.0,28,0.00,,CLR,0.01,VWS V14.00,2013-04-25 18:36:00,
2013-04-25 14:41:00,58.6,25.6,30.08,North,355,6.0,6.0,28,0.00,,CLR,0.01,VWS V14.00,2013-04-25 18:41:00,
2013-04-25 14:46:00,59.2,24.4,30.08,WNW,285,3.0,10.0,26,0.00,,CLR,0.01,VWS V14.00,2013-04-25 18:46:00,
2013-04-25 14:51:00,59.0,24.2,30.08,WNW,285,6.0,6.0,26,0.00,,CLR,0.01,VWS V14.00,2013-04-25 18:51:00,
2013-04-25 14:56:00,59.5,24.6,30.08,West,280,8.0,11.0,26,0.00,,CLR,0.01,VWS V14.00,2013-04-25 18:56:00,
2013-04-25 15:01:00,58.6,21.9,30.08,WNW,287,6.0,10.0,24,0.00,,CLR,0.01,VWS V14.00,2013-04-25 19:01:00,
2013-04-25 15:06:00,58.6,25.6,30.08,SW,229,5.0,5.0,28,0.00,,CLR,0.01,VWS V14.00,2013-04-25 19:06:00,
2013-04-25 15:11:00,59.5,24.6,30.08,WNW,296,4.0,9.0,26,0.00,,CLR,0.01,VWS V14.00,2013-04-25 19:11:00,
2013-04-25 15:16:00,59.6,22.8,30.08,NW,308,5.0,10.0,24,0.00,,CLR,0.01,VWS V14.00,2013-04-25 19:16:00,
2013-04-25 15:21:00,59.6,21.8,30.08,WNW,293,9.0,14.0,23,0.00,,CLR,0.01,VWS V14.00,2013-04-25 19:21:00,
2013-04-25 15:26:00,59.5,23.7,30.08,WNW,303,4.0,10.0,25,0.00,,CLR,0.01,VWS V14.00,2013-04-25 19:26:00,
2013-04-25 15:31:00,59.5,21.7,30.08,WNW,296,3.0,11.0,23,0.00,,CLR,0.01,VWS V14.00,2013-04-25 19:31:00,
2013-04-25 15:36:00,59.8,23.9,30.08,WNW,294,11.0,13.0,25,0.00,,CLR,0.01,VWS V14.00,2013-04-25 19:36:00,
2013-04-25 15:41:00,59.3,22.5,30.08,WNW,302,3.0,9.0,24,0.00,,CLR,0.01,VWS V14.00,2013-04-25 19:41:00,
2013-04-25 15:46:00,59.5,22.7,30.07,West,260,4.0,7.0,24,0.00,,CLR,0.01,VWS V14.00,2013-04-25 19:46:00,
2013-04-25 15:51:00,60.1,25.1,30.07,WSW,241,2.0,5.0,26,0.00,,CLR,0.01,VWS V14.00,2013-04-25 19:51:00,
2013-04-25 15:56:00,60.4,25.4,30.07,NW,309,8.0,8.0,26,0.00,,CLR,0.01,VWS V14.00,2013-04-25 19:56:00,
2013-04-25 16:01:00,60.7,26.5,30.08,WNW,286,2.0,10.0,27,0.00,,CLR,0.01,VWS V14.00,2013-04-25 20:01:00,
2013-04-25 16:06:00,60.5,24.5,30.08,West,274,3.0,3.0,25,0.00,,CLR,0.01,VWS V14.00,2013-04-25 20:06:00,
2013-04-25 16:11:00,60.9,22.9,30.08,North,9,4.0,10.0,23,0.00,,CLR,0.01,VWS V14.00,2013-04-25 20:11:00,
2013-04-25 16:16:00,61.0,24.0,30.08,NNE,24,5.0,7.0,24,0.00,,CLR,0.01,VWS V14.00,2013-04-25 20:16:00,
2013-04-25 16:21:00,60.9,22.9,30.08,WNW,301,6.0,7.0,23,0.00,,CLR,0.01,VWS V14.00,2013-04-25 20:21:00,
2013-04-25 16:26:00,61.0,25.0,30.08,SW,232,4.0,8.0,25,0.00,,CLR,0.01,VWS V14.00,2013-04-25 20:26:00,
2013-04-25 16:31:00,60.7,23.7,30.08,WNW,292,5.0,9.0,24,0.00,,CLR,0.01,VWS V14.00,2013-04-25 20:31:00,
2013-04-25 16:36:00,60.5,22.5,30.08,WSW,256,4.0,4.0,23,0.00,,CLR,0.01,VWS V14.00,2013-04-25 20:36:00,
2013-04-25 16:41:00,60.2,23.3,30.08,West,281,7.0,7.0,24,0.00,,CLR,0.01,VWS V14.00,2013-04-25 20:41:00,
2013-04-25 16:46:00,60.4,24.4,30.08,WNW,292,8.0,9.0,25,0.00,,CLR,0.01,VWS V14.00,2013-04-25 20:46:00,
2013-04-25 16:51:00,60.5,21.5,30.08,WNW,287,10.0,10.0,22,0.00,,CLR,0.01,VWS V14.00,2013-04-25 20:51:00,
2013-04-25 16:57:00,60.5,23.5,30.08,WNW,294,0.0,5.0,24,0.00,,CLR,0.01,VWS V14.00,2013-04-25 20:57:00,
2013-04-25 17:02:00,60.5,22.5,30.08,West,277,6.0,11.0,23,0.00,,CLR,0.01,VWS V14.00,2013-04-25 21:02:00,
2013-04-25 17:07:00,60.4,22.5,30.08,WNW,299,4.0,4.0,23,0.00,,CLR,0.01,VWS V14.00,2013-04-25 21:07:00,
2013-04-25 17:12:00,60.5,22.5,30.08,WNW,292,5.0,6.0,23,0.00,,CLR,0.01,VWS V14.00,2013-04-25 21:12:00,
2013-04-25 17:17:00,60.4,22.5,30.09,WNW,288,0.0,3.0,23,0.00,,CLR,0.01,VWS V14.00,2013-04-25 21:17:00,
2013-04-25 17:22:00,60.1,21.1,30.09,WNW,293,2.0,4.0,22,0.00,,CLR,0.01,VWS V14.00,2013-04-25 21:22:00,
2013-04-25 17:27:00,60.2,23.3,30.09,WNW,293,2.0,3.0,24,0.00,,CLR,0.01,VWS V14.00,2013-04-25 21:27:00,
2013-04-25 17:32:00,60.7,22.7,30.09,WNW,286,2.0,5.0,23,0.00,,CLR,0.01,VWS V14.00,2013-04-25 21:32:00,
2013-04-25 17:37:00,60.7,23.7,30.09,WNW,284,6.0,8.0,24,0.00,,CLR,0.01,VWS V14.00,2013-04-25 21:37:00,
2013-04-25 17:42:00,60.5,23.5,30.09,WNW,301,1.0,3.0,24,0.00,,CLR,0.01,VWS V14.00,2013-04-25 21:42:00,
2013-04-25 17:47:00,60.9,23.9,30.09,NW,304,1.0,7.0,24,0.00,,CLR,0.01,VWS V14.00,2013-04-25 21:47:00,
2013-04-25 17:52:00,60.5,22.5,30.09,NW,304,0.0,3.0,23,0.00,,CLR,0.01,VWS V14.00,2013-04-25 21:52:00,
2013-04-25 17:57:00,60.7,25.6,30.09,WNW,294,3.0,5.0,26,0.00,,CLR,0.01,VWS V14.00,2013-04-25 21:57:00,
2013-04-25 18:02:00,60.7,23.7,30.09,WNW,291,1.0,2.0,24,0.00,,CLR,0.01,VWS V14.00,2013-04-25 22:02:00,
2013-04-25 18:07:00,60.5,22.5,30.09,WNW,291,0.0,1.0,23,0.00,,CLR,0.01,VWS V14.00,2013-04-25 22:07:00,
2013-04-25 18:12:00,60.5,23.5,30.09,NW,316,3.0,3.0,24,0.00,,CLR,0.01,VWS V14.00,2013-04-25 22:12:00,
2013-04-25 18:17:00,60.5,22.5,30.10,NW,306,0.0,3.0,23,0.00,,CLR,0.01,VWS V14.00,2013-04-25 22:17:00,
2013-04-25 18:22:00,60.4,22.5,30.10,NW,305,2.0,4.0,23,0.00,,CLR,0.01,VWS V14.00,2013-04-25 22:22:00,
2013-04-25 18:27:00,60.2,21.2,30.10,NW,305,0.0,2.0,22,0.00,,CLR,0.01,VWS V14.00,2013-04-25 22:27:00,
2013-04-25 18:32:00,60.1,22.2,30.10,NW,305,0.0,3.0,23,0.00,,CLR,0.01,VWS V14.00,2013-04-25 22:32:00,
2013-04-25 18:37:00,59.9,21.0,30.10,WNW,301,0.0,3.0,22,0.00,,CLR,0.01,VWS V14.00,2013-04-25 22:37:00,
2013-04-25 18:42:00,59.9,21.0,30.10,South,184,0.0,1.0,22,0.00,,CLR,0.01,VWS V14.00,2013-04-25 22:42:00,
2013-04-25 18:47:00,59.9,22.0,30.10,South,184,0.0,1.0,23,0.00,,CLR,0.01,VWS V14.00,2013-04-25 22:47:00,
2013-04-25 18:52:00,59.6,21.8,30.10,South,184,0.0,0.0,23,0.00,,CLR,0.01,VWS V14.00,2013-04-25 22:52:00,
2013-04-25 18:57:00,59.6,22.8,30.10,South,184,1.0,1.0,24,0.00,,CLR,0.01,VWS V14.00,2013-04-25 22:57:00,
2013-04-25 19:02:00,59.8,22.0,30.10,South,184,0.0,0.0,23,0.00,,CLR,0.01,VWS V14.00,2013-04-25 23:02:00,
2013-04-25 19:07:00,59.8,22.0,30.10,South,184,0.0,2.0,23,0.00,,CLR,0.01,VWS V14.00,2013-04-25 23:07:00,
2013-04-25 19:12:00,59.9,22.0,30.10,South,184,0.0,1.0,23,0.00,,CLR,0.01,VWS V14.00,2013-04-25 23:12:00,
2013-04-25 19:17:00,59.9,22.0,30.11,NW,306,0.0,1.0,23,0.00,,CLR,0.01,VWS V14.00,2013-04-25 23:17:00,
2013-04-25 19:22:00,59.9,22.0,30.11,NW,307,2.0,3.0,23,0.00,,CLR,0.01,VWS V14.00,2013-04-25 23:22:00,
2013-04-25 19:27:00,59.8,23.0,30.11,NW,307,0.0,1.0,24,0.00,,CLR,0.01,VWS V14.00,2013-04-25 23:27:00,
2013-04-25 19:32:00,59.8,24.9,30.12,NW,307,0.0,1.0,26,0.00,,CLR,0.01,VWS V14.00,2013-04-25 23:32:00,
2013-04-25 19:37:00,59.6,25.6,30.12,NW,307,0.0,1.0,27,0.00,,CLR,0.01,VWS V14.00,2013-04-25 23:37:00,
2013-04-25 19:42:00,59.3,26.2,30.12,NW,307,0.0,1.0,28,0.00,,CLR,0.01,VWS V14.00,2013-04-25 23:42:00,
2013-04-25 19:47:00,58.9,25.9,30.12,NW,307,0.0,0.0,28,0.00,,CLR,0.01,VWS V14.00,2013-04-25 23:47:00,
2013-04-25 19:52:00,58.1,26.0,30.12,NW,307,1.0,2.0,29,0.00,,CLR,0.01,VWS V14.00,2013-04-25 23:52:00,
2013-04-25 19:57:00,57.2,26.1,30.12,NW,313,0.0,1.0,30,0.00,,CLR,0.01,VWS V14.00,2013-04-25 23:57:00,
2013-04-25 20:02:00,56.2,26.0,30.12,NW,313,0.0,1.0,31,0.00,,CLR,0.01,VWS V14.00,2013-04-26 00:02:00,
2013-04-25 20:07:00,55.4,25.3,30.12,NNE,30,0.0,2.0,31,0.00,,CLR,0.01,VWS V14.00,2013-04-26 00:07:00,
2013-04-25 20:12:00,54.7,24.7,30.12,NNE,30,0.0,1.0,31,0.00,,CLR,0.01,VWS V14.00,2013-04-26 00:12:00,
2013-04-25 20:17:00,54.1,24.9,30.12,ENE,66,0.0,1.0,32,0.00,,CLR,0.01,VWS V14.00,2013-04-26 00:17:00,
2013-04-25 20:22:00,53.5,24.4,30.12,ENE,66,1.0,1.0,32,0.00,,CLR,0.01,VWS V14.00,2013-04-26 00:22:00,
2013-04-25 20:27:00,53.1,25.5,30.12,ENE,60,0.0,1.0,34,0.00,,CLR,0.01,VWS V14.00,2013-04-26 00:27:00,
2013-04-25 20:32:00,52.6,25.0,30.14,ENE,57,0.0,1.0,34,0.00,,CLR,0.01,VWS V14.00,2013-04-26 00:32:00,
2013-04-25 20:37:00,52.3,25.5,30.14,ENE,57,0.0,0.0,35,0.00,,CLR,0.01,VWS V14.00,2013-04-26 00:37:00,
2013-04-25 20:42:00,52.0,25.2,30.14,ENE,68,0.0,1.0,35,0.00,,CLR,0.01,VWS V14.00,2013-04-26 00:42:00,
2013-04-25 20:47:00,52.0,25.2,30.14,ENE,69,0.0,2.0,35,0.00,,CLR,0.01,VWS V14.00,2013-04-26 00:47:00,
2013-04-25 20:52:00,51.9,25.1,30.14,ENE,67,0.0,1.0,35,0.00,,CLR,0.01,VWS V14.00,2013-04-26 00:52:00,
2013-04-25 20:57:00,51.6,25.5,30.14,ENE,65,1.0,2.0,36,0.00,,CLR,0.01,VWS V14.00,2013-04-26 00:57:00,
2013-04-25 21:02:00,51.4,26.0,30.15,ENE,73,0.0,0.0,37,0.00,,CLR,0.01,VWS V14.00,2013-04-26 01:02:00,
2013-04-25 21:07:00,51.3,25.9,30.15,ENE,73,1.0,1.0,37,0.00,,CLR,0.01,VWS V14.00,2013-04-26 01:07:00,
2013-04-25 21:12:00,51.1,26.4,30.15,NE,39,0.0,2.0,38,0.00,,CLR,0.01,VWS V14.00,2013-04-26 01:12:00,
2013-04-25 21:17:00,50.8,25.5,30.15,NE,49,0.0,1.0,37,0.00,,CLR,0.01,VWS V14.00,2013-04-26 01:17:00,
2013-04-25 21:22:00,50.8,25.5,30.15,ENE,68,0.0,2.0,37,0.00,,CLR,0.01,VWS V14.00,2013-04-26 01:22:00,
2013-04-25 21:27:00,50.8,25.5,30.15,ENE,68,0.0,1.0,37,0.00,,CLR,0.01,VWS V14.00,2013-04-26 01:27:00,
2013-04-25 21:32:00,50.7,26.0,30.16,ENE,68,0.0,0.0,38,0.00,,CLR,0.01,VWS V14.00,2013-04-26 01:32:00,
2013-04-25 21:37:00,50.7,26.0,30.16,ENE,68,1.0,1.0,38,0.00,,CLR,0.01,VWS V14.00,2013-04-26 01:37:00,
2013-04-25 21:42:00,50.5,25.9,30.16,ENE,68,0.0,0.0,38,0.00,,CLR,0.01,VWS V14.00,2013-04-26 01:42:00,
2013-04-25 21:47:00,50.4,25.8,30.17,ENE,68,0.0,0.0,38,0.00,,CLR,0.01,VWS V14.00,2013-04-26 01:47:00,
2013-04-25 21:52:00,50.2,25.0,30.17,ENE,68,0.0,0.0,37,0.00,,CLR,0.01,VWS V14.00,2013-04-26 01:52:00,
2013-04-25 21:57:00,50.1,26.1,30.17,ENE,68,0.0,0.0,39,0.00,,CLR,0.01,VWS V14.00,2013-04-26 01:57:00,
2013-04-25 22:02:00,49.9,25.3,30.17,ENE,68,0.0,0.0,38,0.00,,CLR,0.01,VWS V14.00,2013-04-26 02:02:00,
2013-04-25 22:07:00,49.8,25.2,30.17,ENE,68,0.0,0.0,38,0.00,,CLR,0.01,VWS V14.00,2013-04-26 02:07:00,
2013-04-25 22:12:00,49.6,25.0,30.17,ENE,68,1.0,1.0,38,0.00,,CLR,0.01,VWS V14.00,2013-04-26 02:12:00,
2013-04-25 22:17:00,49.5,25.0,30.17,ENE,68,0.0,0.0,38,0.00,,CLR,0.01,VWS V14.00,2013-04-26 02:17:00,
2013-04-25 22:22:00,49.4,26.1,30.17,ENE,68,1.0,2.0,40,0.00,,CLR,0.01,VWS V14.00,2013-04-26 02:22:00,
2013-04-25 22:27:00,48.9,26.8,30.17,ENE,68,0.0,1.0,42,0.00,,CLR,0.01,VWS V14.00,2013-04-26 02:27:00,
2013-04-25 22:32:00,48.8,26.7,30.18,ENE,68,0.0,1.0,42,0.00,,CLR,0.01,VWS V14.00,2013-04-26 02:32:00,
2013-04-25 22:37:00,48.3,26.9,30.18,ENE,68,0.0,1.0,43,0.00,,CLR,0.01,VWS V14.00,2013-04-26 02:37:00,
2013-04-25 22:42:00,48.0,26.6,30.18,ENE,68,0.0,2.0,43,0.00,,CLR,0.01,VWS V14.00,2013-04-26 02:42:00,
2013-04-25 22:47:00,47.7,26.3,30.18,ENE,68,2.0,2.0,43,0.00,,CLR,0.01,VWS V14.00,2013-04-26 02:47:00,
2013-04-25 22:52:00,47.6,26.8,30.18,ENE,68,1.0,2.0,44,0.00,,CLR,0.01,VWS V14.00,2013-04-26 02:52:00,
2013-04-25 22:57:00,47.3,27.0,30.18,ENE,68,1.0,2.0,45,0.00,,CLR,0.01,VWS V14.00,2013-04-26 02:57:00,
2013-04-25 23:02:00,47.0,26.8,30.18,ENE,68,0.0,2.0,45,0.00,,CLR,0.01,VWS V14.00,2013-04-26 03:02:00,
2013-04-25 23:07:00,46.7,26.5,30.18,ENE,68,1.0,2.0,45,0.00,,CLR,0.01,VWS V14.00,2013-04-26 03:07:00,
2013-04-25 23:12:00,46.4,26.8,30.18,ENE,68,0.0,1.0,46,0.00,,CLR,0.01,VWS V14.00,2013-04-26 03:12:00,
2013-04-25 23:17:00,46.2,26.6,30.19,ENE,68,0.0,1.0,46,0.00,,CLR,0.01,VWS V14.00,2013-04-26 03:17:00,
2013-04-25 23:22:00,46.1,26.0,30.19,ENE,68,0.0,1.0,45,0.00,,CLR,0.01,VWS V14.00,2013-04-26 03:22:00,
2013-04-25 23:27:00,46.1,26.5,30.19,ENE,68,0.0,1.0,46,0.00,,CLR,0.01,VWS V14.00,2013-04-26 03:27:00,
2013-04-25 23:32:00,46.1,26.5,30.19,ENE,68,0.0,0.0,46,0.00,,CLR,0.01,VWS V14.00,2013-04-26 03:32:00,
2013-04-25 23:37:00,46.1,26.5,30.19,ENE,68,1.0,1.0,46,0.00,,CLR,0.01,VWS V14.00,2013-04-26 03:37:00,
2013-04-25 23:42:00,46.1,26.0,30.19,ENE,68,0.0,1.0,45,0.00,,CLR,0.01,VWS V14.00,2013-04-26 03:42:00,
2013-04-25 23:47:00,46.2,26.0,30.19,ENE,68,2.0,2.0,45,0.00,,CLR,0.01,VWS V14.00,2013-04-26 03:47:00,
2013-04-25 23:52:00,46.2,25.5,30.19,ENE,69,1.0,4.0,44,0.00,,CLR,0.01,VWS V14.00,2013-04-26 03:52:00,
2013-04-25 23:57:00,46.4,25.1,30.19,ENE,69,0.0,1.0,43,0.00,,CLR,0.01,VWS V14.00,2013-04-26 03:57:00,